EW0954 Weather Reports


Display with metric or nautical units.
time (UTC)temp
F
wind
direction
speed
MPH
gust
MPH
rain 1hr
in
rain 24hr
in
rain mn
in
humidity
%
barometer
mb
20191018230254 46 83 0.0 0.0 0.00 0.20 0.00 97 1012.2
20191018225255 46 84 0.0 0.0 0.00 0.20 0.00 97 1012.2
20191018224254 45 79 0.0 0.0 0.00 0.20 0.00 97 1012.2
20191018223255 45 79 0.0 0.0 0.00 0.20 0.00 97 1012.3
20191018220255 45 210 0.0 0.0 0.00 0.20 0.00 97 1012.3
20191018215255 45 210 0.0 0.0 0.00 0.20 0.20 97 1012.1
20191018214255 46 210 0.0 0.0 0.00 0.20 0.20 97 1012.1
20191018213255 46 210 0.0 0.0 0.00 0.20 0.20 97 1012.2
20191018211255 46 132 0.0 0.0 0.00 0.20 0.20 97 1012.2
20191018205255 46 179 0.0 0.0 0.00 0.22 0.20 96 1012.4
20191018203255 46 179 0.0 0.0 0.00 0.22 0.20 96 1012.4
20191018202255 46 179 0.0 0.0 0.00 0.22 0.20 96 1012.5
20191018195256 47 86 0.0 0.0 0.00 0.24 0.20 96 1012.5
20191018193256 47 33 0.0 0.0 0.00 0.24 0.20 96 1012.3
20191018192256 47 129 0.0 0.0 0.00 0.24 0.20 96 1012.2
20191018184256 47 87 0.0 0.0 0.00 0.35 0.20 95 1011.9
20191018182256 48 69 0.0 1.0 0.00 0.35 0.20 94 1011.8
20191018181256 48 82 0.0 0.0 0.00 0.35 0.20 94 1011.7
20191018174256 49 84 0.0 0.0 0.00 0.47 0.20 93 1011.6
20191018173256 50 89 0.0 2.0 0.00 0.47 0.20 93 1011.5
20191018172256 50 70 0.0 4.0 0.00 0.47 0.20 92 1011.4
20191018170257 52 53 0.0 1.0 0.00 0.47 0.20 88 1011.3
20191018164257 53 283 0.0 1.0 0.00 0.50 0.20 84 1010.9
20191018163257 53 262 1.0 6.0 0.00 0.50 0.20 84 1010.8
20191018160257 53 266 0.0 1.0 0.00 0.50 0.20 87 1010.5
20191018154257 54 190 1.0 3.0 0.01 0.50 0.20 86 1010.2
20191018151257 55 211 1.0 4.0 0.06 0.50 0.20 82 1009.6
20191018145257 55 293 0.0 3.0 0.13 0.50 0.20 83 1009.2
20191018144258 55 279 1.0 3.0 0.12 0.49 0.20 85 1009.3
20191018134258 61 191 3.0 10.0 0.00 0.37 0.08 85 1008.2
20191018131258 60 174 3.0 7.0 0.07 0.37 0.08 88 1008.5
20191018130258 60 211 1.0 7.0 0.07 0.37 0.08 89 1008.6
20191018124258 59 206 1.0 4.0 0.07 0.37 0.08 88 1008.7
20191018114259 63 132 2.0 6.0 0.00 0.30 0.01 77 1008.9
20191018113259 63 250 1.0 5.0 0.00 0.30 0.01 77 1009.2
20191018112259 64 239 0.0 4.0 0.00 0.30 0.01 77 1009.4
20191018105259 63 122 2.0 7.0 0.00 0.30 0.01 78 1009.7
20191018103259 62 229 3.0 7.0 0.00 0.30 0.01 80 1009.9
20191018095259 62 110 1.0 4.0 0.00 0.30 0.01 83 1010.4
20191018093259 61 195 3.0 8.0 0.00 0.30 0.01 83 1010.5
20191018092259 61 192 2.0 7.0 0.00 0.30 0.01 84 1010.4
20191018091259 61 156 1.0 4.0 0.00 0.30 0.01 85 1010.4
20191018090300 61 174 1.0 5.0 0.00 0.30 0.01 85 1010.4
20191018082300 59 163 1.0 3.0 0.00 0.30 0.01 88 1010.6
20191018081300 59 128 0.0 3.0 0.00 0.30 0.01 89 1010.4
20191018080300 59 191 1.0 4.0 0.00 0.30 0.01 90 1010.6
20191018073300 57 172 1.0 5.0 0.00 0.30 0.01 92 1011.0
20191018072300 57 165 1.0 3.0 0.00 0.30 0.01 93 1011.0
20191018070300 56 187 0.0 1.0 0.00 0.30 0.01 95 1011.3
20191018065300 56 193 0.0 0.0 0.00 0.30 0.01 96 1011.5
20191018064301 55 131 0.0 1.0 0.00 0.30 0.01 96 1011.6
20191018061301 55 146 0.0 2.0 0.00 0.30 0.01 96 1011.8
20191018054301 54 131 0.0 2.0 0.00 0.30 0.01 96 1011.8
20191018051301 54 122 0.0 0.0 0.00 0.30 0.01 96 1011.8
20191018041301 54 172 0.0 1.0 0.01 0.30 0.01 96 1011.8
20191018034302 55 191 0.0 3.0 0.01 0.30 0.01 96 1012.1
20191018033302 55 158 0.0 1.0 0.01 0.30 0.01 96 1012.1
20191018025302 56 148 0.0 2.0 0.00 0.29 0.00 96 1012.3
20191018024302 56 163 0.0 0.0 0.00 0.29 0.00 96 1012.2
20191018023302 56 153 0.0 3.0 0.00 0.29 0.00 96 1012.2
20191018022302 56 159 1.0 3.0 0.00 0.29 0.00 96 1012.3
20191018021302 56 147 0.0 3.0 0.00 0.29 0.00 96 1012.2
20191018020302 56 136 0.0 3.0 0.00 0.29 0.00 96 1012.3
20191018014302 56 153 0.0 1.0 0.00 0.29 0.00 96 1012.4
20191018013302 56 139 0.0 1.0 0.00 0.29 0.00 96 1012.5
20191018012302 56 204 0.0 3.0 0.00 0.29 0.00 96 1012.4
20191018004303 57 146 0.0 1.0 0.00 0.29 0.00 96 1012.6
20191018003303 57 215 0.0 1.0 0.00 0.29 0.00 95 1012.7
20191018001303 57 122 0.0 2.0 0.00 0.29 0.00 95 1012.7
20191018000303 57 150 0.0 2.0 0.00 0.29 0.00 95 1012.7
20191017235303 57 159 0.0 1.0 0.00 0.29 0.00 95 1012.7
20191017234303 57 198 0.0 4.0 0.00 0.29 0.00 95 1012.7
20191017233303 57 145 0.0 0.0 0.00 0.29 0.00 95 1012.6
20191017232303 57 148 0.0 0.0 0.00 0.29 0.00 95 1012.7